Time;durP1;ratioP1;P1;durP2;ratioP2;P2;SDS_P1;SDS_P2;PMS_P1;PMS_P2;Temp;Humidity;BMP_temperature;BMP_pressure;BME280_temperature;BME280_humidity;BME280_pressure;Samples;Min_cycle;Max_cycle;Signal;HPM_P1;HPM_P2
2022/06/19 00:01:10;;;;;;;2.67;2.00;;;23.60;99.90;;;;;;5092174;28;20411;-71
2022/06/19 00:03:46;;;;;;;2.53;2.33;;;23.50;99.90;;;;;;5093413;28;20207;-71
2022/06/19 00:06:13;;;;;;;6.47;2.93;;;23.50;99.90;;;;;;5093106;28;20157;-71
2022/06/19 00:08:39;;;;;;;3.00;2.40;;;23.40;99.90;;;;;;5084614;28;20431;-72
2022/06/19 00:11:05;;;;;;;4.03;3.20;;;23.40;99.90;;;;;;5073030;28;20416;-71
2022/06/19 00:13:31;;;;;;;2.40;2.20;;;23.40;99.90;;;;;;5073042;28;20400;-71
2022/06/19 00:15:58;;;;;;;3.33;2.47;;;23.40;99.90;;;;;;5073705;28;20416;-71
2022/06/19 00:18:23;;;;;;;3.30;2.70;;;23.30;99.90;;;;;;5073511;28;20221;-72
2022/06/19 00:20:49;;;;;;;2.23;1.73;;;23.30;99.90;;;;;;5078187;28;20479;-73
2022/06/19 00:23:14;;;;;;;2.83;2.20;;;23.30;99.90;;;;;;5074792;28;20170;-72
2022/06/19 00:25:40;;;;;;;3.57;2.13;;;23.30;99.90;;;;;;5072490;28;20262;-71
2022/06/19 00:28:06;;;;;;;1.97;1.83;;;23.30;99.90;;;;;;5077874;28;20193;-72
2022/06/19 00:30:32;;;;;;;2.23;2.03;;;23.30;99.90;;;;;;5085888;28;20699;-71
2022/06/19 00:32:58;;;;;;;1.60;1.50;;;23.20;99.90;;;;;;5072623;28;20420;-70
2022/06/19 00:35:26;;;;;;;1.57;1.47;;;23.20;99.90;;;;;;5072303;28;20439;-71
2022/06/19 00:37:53;;;;;;;1.80;1.70;;;23.10;99.90;;;;;;5075496;28;20429;-72
2022/06/19 00:40:19;;;;;;;1.70;1.57;;;23.10;99.90;;;;;;5081935;28;20431;-72
2022/06/19 00:42:45;;;;;;;3.00;2.70;;;23.10;99.90;;;;;;5093806;28;20412;-72
2022/06/19 00:45:31;;;;;;;1.53;1.43;;;23.00;99.90;;;;;;5092394;28;20461;-71
2022/06/19 00:47:59;;;;;;;1.70;1.60;;;23.00;99.90;;;;;;5092614;28;20684;-71
2022/06/19 00:50:28;;;;;;;2.33;1.70;;;23.00;99.90;;;;;;5092646;28;20406;-71
2022/06/19 00:52:54;;;;;;;1.70;1.50;;;22.90;99.90;;;;;;5083199;28;20405;-71
2022/06/19 00:55:24;;;;;;;2.43;1.93;;;22.90;99.90;;;;;;5070598;28;21056;-71
2022/06/19 00:58:11;;;;;;;4.00;1.90;;;22.90;99.90;;;;;;5072243;28;20285;-72
2022/06/19 01:00:38;;;;;;;2.70;2.50;;;22.80;99.90;;;;;;5070815;28;20744;-72
2022/06/19 01:03:14;;;;;;;2.27;2.07;;;22.80;99.90;;;;;;5072216;28;20429;-71
2022/06/19 01:05:43;;;;;;;5.40;2.60;;;22.80;99.90;;;;;;5087847;28;20447;-73
2022/06/19 01:08:09;;;;;;;3.30;2.60;;;22.70;99.90;;;;;;5094972;28;20455;-72
2022/06/19 01:10:39;;;;;;;2.53;2.33;;;22.70;99.90;;;;;;5092256;28;20858;-71
2022/06/19 01:13:05;;;;;;;2.30;2.10;;;22.70;99.90;;;;;;5092254;28;20491;-71
2022/06/19 01:15:31;;;;;;;2.80;2.40;;;22.70;99.90;;;;;;5091869;28;20530;-72
2022/06/19 01:17:59;;;;;;;2.07;1.80;;;22.60;99.90;;;;;;5075315;28;20762;-71
2022/06/19 01:20:27;;;;;;;2.37;2.17;;;22.60;99.90;;;;;;5071957;28;20178;-72
2022/06/19 01:23:11;;;;;;;4.00;2.50;;;22.60;99.90;;;;;;5071926;28;20411;-70
2022/06/19 01:25:39;;;;;;;2.37;2.17;;;22.50;99.90;;;;;;5071678;28;20895;-72
2022/06/19 01:30:59;;;;;;;1.53;1.43;;;22.50;99.90;;;;;;5077267;28;20410;-72
2022/06/19 01:33:39;;;;;;;1.97;1.83;;;22.50;99.90;;;;;;5092025;28;20402;-72
2022/06/19 01:36:07;;;;;;;2.07;1.63;;;22.40;99.90;;;;;;5091704;28;20410;-72
2022/06/19 01:38:34;;;;;;;2.43;2.23;;;22.40;99.90;;;;;;5091961;28;20403;-72
2022/06/19 01:41:06;;;;;;;2.40;2.20;;;22.40;99.90;;;;;;5091945;28;20399;-72
2022/06/19 01:43:33;;;;;;;4.00;2.87;;;22.30;99.90;;;;;;5096121;28;20404;-73
2022/06/19 01:45:58;;;;;;;3.30;3.00;;;22.30;99.90;;;;;;5078924;28;20419;-71
2022/06/19 01:48:28;;;;;;;3.13;2.50;;;22.30;99.90;;;;;;5074172;28;20523;-72
2022/06/19 01:50:55;;;;;;;3.30;2.30;;;22.20;99.90;;;;;;5071642;28;20228;-71
2022/06/19 01:53:29;;;;;;;3.50;2.77;;;22.10;99.90;;;;;;5071518;28;20420;-70
2022/06/19 01:55:55;;;;;;;3.40;2.70;;;22.10;99.90;;;;;;5071405;28;20495;-72
2022/06/19 01:58:24;;;;;;;2.33;1.97;;;22.00;99.90;;;;;;5070451;28;20523;-72
2022/06/19 02:00:50;;;;;;;2.53;2.33;;;22.00;99.90;;;;;;5078955;28;20177;-72
2022/06/19 02:03:25;;;;;;;2.90;2.07;;;22.00;99.90;;;;;;5073977;28;20954;-71
2022/06/19 02:05:50;;;;;;;2.23;1.87;;;21.90;99.90;;;;;;5071170;28;20407;-71
2022/06/19 02:08:17;;;;;;;1.50;1.40;;;21.90;99.90;;;;;;5071343;28;20543;-70
2022/06/19 02:10:45;;;;;;;2.63;2.43;;;21.90;99.90;;;;;;5071558;28;20254;-72
2022/06/19 02:13:13;;;;;;;1.50;1.40;;;21.80;99.90;;;;;;5081020;28;20898;-71
2022/06/19 02:15:38;;;;;;;1.77;1.50;;;21.80;99.90;;;;;;5094127;28;20408;-71
2022/06/19 02:18:08;;;;;;;1.40;1.30;;;21.80;99.90;;;;;;5089389;28;20436;-71
2022/06/19 02:20:33;;;;;;;2.30;1.90;;;21.80;99.90;;;;;;5070184;28;20208;-70
2022/06/19 02:23:01;;;;;;;1.37;1.27;;;21.70;99.90;;;;;;5074198;28;20902;-71
2022/06/19 02:25:26;;;;;;;1.53;1.43;;;21.70;99.90;;;;;;5071087;28;20169;-70
2022/06/19 02:27:52;;;;;;;2.50;2.30;;;21.60;99.90;;;;;;5070999;28;20451;-70
2022/06/19 02:30:18;;;;;;;2.57;2.27;;;21.60;99.90;;;;;;5077889;28;20178;-72
2022/06/19 02:32:47;;;;;;;1.93;1.83;;;21.60;99.90;;;;;;5095891;28;20541;-71
2022/06/19 02:35:19;;;;;;;2.30;2.07;;;21.50;99.90;;;;;;5094885;28;20666;-70
2022/06/19 02:37:51;;;;;;;2.17;1.97;;;21.50;99.90;;;;;;5093761;28;20462;-70
2022/06/19 02:40:41;;;;;;;2.27;1.93;;;21.40;99.90;;;;;;5095084;28;20399;-70
2022/06/19 02:43:12;;;;;;;1.97;1.80;;;21.40;99.90;;;;;;5095039;28;20404;-70
2022/06/19 02:45:39;;;;;;;1.80;1.70;;;21.30;99.90;;;;;;5081013;28;20423;-70
2022/06/19 02:48:06;;;;;;;1.70;1.60;;;21.30;99.90;;;;;;5074525;28;20452;-70
2022/06/19 02:50:34;;;;;;;1.80;1.70;;;21.30;99.90;;;;;;5074641;28;20492;-71
2022/06/19 02:53:00;;;;;;;2.63;2.43;;;21.30;99.90;;;;;;5075969;28;20401;-71
2022/06/19 02:55:26;;;;;;;6.40;3.63;;;21.30;99.90;;;;;;5073531;28;20950;-71
2022/06/19 02:57:52;;;;;;;4.90;4.20;;;21.30;99.90;;;;;;5074255;28;20451;-71
2022/06/19 03:00:21;;;;;;;5.17;4.33;;;21.40;99.90;;;;;;5094453;28;20419;-73
2022/06/19 03:02:51;;;;;;;4.13;3.80;;;21.40;99.90;;;;;;5095164;28;20280;-72
2022/06/19 03:05:23;;;;;;;4.33;3.70;;;21.40;99.90;;;;;;5096444;28;20870;-73
2022/06/19 03:07:49;;;;;;;5.40;3.10;;;21.40;99.90;;;;;;5097003;28;20473;-72
2022/06/19 03:10:15;;;;;;;5.20;3.73;;;21.40;99.90;;;;;;5096679;28;20411;-71
2022/06/19 03:12:41;;;;;;;4.33;3.97;;;21.40;99.90;;;;;;5094904;28;20411;-72
2022/06/19 03:15:08;;;;;;;4.50;3.73;;;21.30;99.90;;;;;;5094131;28;20404;-72
2022/06/19 03:17:34;;;;;;;3.60;3.30;;;21.30;99.90;;;;;;5094277;28;20424;-71
2022/06/19 03:19:59;;;;;;;2.67;2.33;;;21.20;99.90;;;;;;5094282;28;20414;-71
2022/06/19 03:22:25;;;;;;;2.90;2.70;;;21.20;99.90;;;;;;5094232;28;20169;-71
2022/06/19 03:24:50;;;;;;;2.20;2.00;;;21.20;99.90;;;;;;5093878;28;20196;-71
2022/06/19 03:27:16;;;;;;;2.57;2.00;;;21.10;99.90;;;;;;5093947;28;20197;-72
2022/06/19 03:29:41;;;;;;;2.17;1.97;;;21.00;99.90;;;;;;5094248;28;20248;-72
2022/06/19 03:32:12;;;;;;;1.77;1.60;;;21.00;99.90;;;;;;5091555;28;20174;-72
2022/06/19 03:34:38;;;;;;;2.00;1.80;;;20.90;99.90;;;;;;5092326;28;20636;-71
2022/06/19 03:37:04;;;;;;;2.00;1.43;;;20.80;99.90;;;;;;5092988;28;20937;-72
2022/06/19 03:39:30;;;;;;;2.07;1.87;;;20.80;99.90;;;;;;5094027;28;20485;-72
2022/06/19 03:41:55;;;;;;;2.23;1.80;;;20.70;99.90;;;;;;5091628;28;20467;-71
2022/06/19 03:44:21;;;;;;;5.23;2.13;;;20.60;99.90;;;;;;5072381;28;20584;-72
2022/06/19 03:46:46;;;;;;;1.60;1.50;;;20.50;99.90;;;;;;5073678;28;20688;-72
2022/06/19 03:49:12;;;;;;;1.67;1.50;;;20.50;99.90;;;;;;5073908;28;20162;-72
2022/06/19 03:51:38;;;;;;;2.73;2.10;;;20.40;99.90;;;;;;5072418;28;20596;-72
2022/06/19 03:54:03;;;;;;;2.13;1.63;;;20.30;99.90;;;;;;5074312;28;20264;-72
2022/06/19 03:56:31;;;;;;;1.67;1.57;;;20.20;99.90;;;;;;5093223;28;20203;-72
2022/06/19 03:58:58;;;;;;;2.20;1.83;;;20.20;99.90;;;;;;5092249;28;20223;-72
2022/06/19 04:01:37;;;;;;;3.03;1.73;;;20.10;99.90;;;;;;5093681;28;20419;-72
2022/06/19 04:04:04;;;;;;;1.50;1.10;;;20.10;99.90;;;;;;5093884;28;20468;-72
2022/06/19 04:06:31;;;;;;;1.50;1.37;;;20.00;99.90;;;;;;5088878;28;20519;-71
2022/06/19 04:08:58;;;;;;;2.37;1.93;;;19.90;99.90;;;;;;5073314;28;20933;-71
2022/06/19 04:11:26;;;;;;;2.10;1.87;;;19.90;99.90;;;;;;5073129;28;20428;-72
2022/06/19 04:13:54;;;;;;;1.53;1.43;;;19.80;99.90;;;;;;5073024;28;20404;-72
2022/06/19 04:16:26;;;;;;;3.03;1.10;;;19.80;99.90;;;;;;5072625;28;20428;-72
2022/06/19 04:18:53;;;;;;;2.70;1.47;;;19.70;99.90;;;;;;5079421;28;20420;-71
2022/06/19 04:21:24;;;;;;;2.70;1.60;;;19.60;99.90;;;;;;5093139;28;20413;-72
2022/06/19 04:23:54;;;;;;;1.73;1.47;;;19.60;99.90;;;;;;5093163;28;20400;-72
2022/06/19 04:26:20;;;;;;;2.60;1.37;;;19.50;99.90;;;;;;5092733;28;20766;-72
2022/06/19 04:28:45;;;;;;;5.70;1.33;;;19.50;99.90;;;;;;5092942;28;20458;-72
2022/06/19 04:31:11;;;;;;;1.57;1.43;;;19.40;99.90;;;;;;5084278;28;20812;-72
2022/06/19 04:33:40;;;;;;;2.23;1.13;;;19.40;99.90;;;;;;5072810;28;20166;-72
2022/06/19 04:36:09;;;;;;;1.17;1.07;;;19.30;99.90;;;;;;5072255;28;20170;-72
2022/06/19 04:38:39;;;;;;;1.90;1.23;;;19.30;99.90;;;;;;5072682;28;20922;-72
2022/06/19 04:41:05;;;;;;;3.13;1.27;;;19.20;99.90;;;;;;5072584;28;20439;-72
2022/06/19 04:43:31;;;;;;;2.60;1.10;;;19.20;99.90;;;;;;5082861;28;20415;-72
2022/06/19 04:46:04;;;;;;;6.93;1.40;;;19.20;99.90;;;;;;5092475;28;20181;-72
2022/06/19 04:48:30;;;;;;;1.20;1.10;;;19.10;99.90;;;;;;5092617;28;20459;-72
2022/06/19 04:50:56;;;;;;;3.67;1.37;;;19.10;99.90;;;;;;5091434;28;20910;-71
2022/06/19 04:53:21;;;;;;;1.40;1.00;;;19.10;99.90;;;;;;5092598;28;20636;-72
2022/06/19 04:55:47;;;;;;;1.23;1.00;;;19.10;99.90;;;;;;5087363;28;20184;-72
2022/06/19 04:58:12;;;;;;;1.50;1.17;;;19.10;99.90;;;;;;5091839;28;20201;-72
2022/06/19 05:00:40;;;;;;;3.93;0.97;;;19.10;99.90;;;;;;5092196;28;20181;-71
2022/06/19 05:03:05;;;;;;;1.53;1.13;;;19.10;99.90;;;;;;5091251;28;20231;-72
2022/06/19 05:05:31;;;;;;;1.50;1.13;;;19.10;99.90;;;;;;5092191;28;20407;-72
2022/06/19 05:07:56;;;;;;;3.13;2.70;;;19.10;99.90;;;;;;5078135;28;20209;-72
2022/06/19 05:10:22;;;;;;;7.63;1.20;;;19.10;99.90;;;;;;5070821;28;20169;-72
2022/06/19 05:12:48;;;;;;;2.10;1.07;;;19.10;99.90;;;;;;5072335;28;20223;-72
2022/06/19 05:15:14;;;;;;;3.63;1.07;;;19.10;99.90;;;;;;5071872;28;20219;-72
2022/06/19 05:17:40;;;;;;;2.33;1.13;;;19.10;99.90;;;;;;5072124;28;21053;-72
2022/06/19 05:20:06;;;;;;;2.90;1.20;;;19.20;99.90;;;;;;5083845;28;20423;-72
2022/06/19 05:22:33;;;;;;;1.30;1.10;;;19.20;99.90;;;;;;5092116;28;20458;-72
2022/06/19 05:24:59;;;;;;;1.20;1.00;;;19.20;99.90;;;;;;5091914;28;20439;-72
2022/06/19 05:27:24;;;;;;;4.50;1.27;;;19.20;99.90;;;;;;5091885;28;20486;-72
2022/06/19 05:29:50;;;;;;;3.10;1.00;;;19.20;99.90;;;;;;5092244;28;20176;-72
2022/06/19 05:32:16;;;;;;;3.00;1.60;;;19.20;99.90;;;;;;5077660;28;20171;-72
2022/06/19 05:34:41;;;;;;;1.93;0.90;;;19.30;99.90;;;;;;5071622;28;20166;-72
2022/06/19 05:37:07;;;;;;;1.30;1.00;;;19.30;99.90;;;;;;5071701;28;20194;-72
2022/06/19 05:39:32;;;;;;;1.80;1.00;;;19.40;99.90;;;;;;5071754;28;20506;-72
2022/06/19 05:41:58;;;;;;;2.73;1.17;;;19.40;99.90;;;;;;5087327;28;20633;-72
2022/06/19 05:44:25;;;;;;;7.43;1.20;;;19.50;99.90;;;;;;5070470;28;20174;-73
2022/06/19 05:46:51;;;;;;;2.53;1.03;;;19.60;99.90;;;;;;5071652;28;20596;-72
2022/06/19 05:49:17;;;;;;;1.37;0.90;;;19.70;99.90;;;;;;5071682;28;20408;-71
2022/06/19 05:51:43;;;;;;;2.60;1.47;;;19.80;99.90;;;;;;5071683;28;20403;-71
2022/06/19 05:54:09;;;;;;;2.33;1.33;;;19.90;99.90;;;;;;5088083;28;20438;-71
2022/06/19 05:56:35;;;;;;;1.20;0.97;;;20.00;99.90;;;;;;5091545;28;20810;-71
2022/06/19 05:59:00;;;;;;;1.33;1.20;;;20.10;99.90;;;;;;5091807;28;20414;-71
2022/06/19 06:01:28;;;;;;;1.10;0.90;;;20.30;99.90;;;;;;5091899;28;20162;-71
2022/06/19 06:03:54;;;;;;;3.73;1.13;;;20.50;99.90;;;;;;5090575;28;20529;-71
2022/06/19 06:06:25;;;;;;;1.77;1.23;;;20.80;99.90;;;;;;5074039;28;20454;-71
2022/06/19 06:08:52;;;;;;;1.47;1.10;;;21.10;99.90;;;;;;5075426;28;20447;-71
2022/06/19 06:11:18;;;;;;;3.27;1.20;;;21.40;99.90;;;;;;5075386;28;20431;-72
2022/06/19 06:13:44;;;;;;;1.10;1.00;;;21.80;99.90;;;;;;5075441;28;20412;-72
2022/06/19 06:16:12;;;;;;;1.30;0.70;;;22.20;99.90;;;;;;5074941;28;20545;-72
2022/06/19 06:18:37;;;;;;;1.43;0.80;;;22.50;99.90;;;;;;5093422;28;20788;-73
2022/06/19 06:21:06;;;;;;;5.60;1.10;;;22.90;99.90;;;;;;5095448;28;20406;-72
2022/06/19 06:23:32;;;;;;;1.70;1.10;;;23.30;99.90;;;;;;5095207;28;20185;-73
2022/06/19 06:26:12;;;;;;;1.77;0.97;;;23.70;99.90;;;;;;5095049;28;20415;-72
2022/06/19 06:28:40;;;;;;;1.40;0.90;;;24.10;99.90;;;;;;5092701;28;20447;-73
2022/06/19 06:31:07;;;;;;;1.20;1.00;;;24.70;99.90;;;;;;5075038;28;20601;-73
2022/06/19 06:33:33;;;;;;;1.00;0.80;;;25.20;99.90;;;;;;5074987;28;20419;-73
2022/06/19 06:35:59;;;;;;;1.43;0.90;;;25.70;99.90;;;;;;5074488;28;20400;-73
2022/06/19 06:38:26;;;;;;;1.63;1.33;;;26.30;99.90;;;;;;5074753;28;20292;-73
2022/06/19 06:40:52;;;;;;;1.63;1.20;;;26.90;99.90;;;;;;5078224;28;20473;-73
2022/06/19 06:43:18;;;;;;;1.77;1.20;;;27.50;99.90;;;;;;5095100;28;20415;-73
2022/06/19 06:45:44;;;;;;;1.23;1.00;;;28.00;99.90;;;;;;5093723;28;20917;-73
2022/06/19 06:48:10;;;;;;;2.57;1.20;;;28.60;99.90;;;;;;5093591;28;20465;-73
2022/06/19 06:50:37;;;;;;;1.63;1.17;;;29.00;99.90;;;;;;5093644;28;20260;-73
2022/06/19 06:53:03;;;;;;;6.37;1.97;;;29.20;99.70;;;;;;5090007;28;20504;-73
2022/06/19 06:55:29;;;;;;;1.97;1.53;;;29.40;96.00;;;;;;5073093;28;20495;-73
2022/06/19 06:57:54;;;;;;;4.20;1.10;;;29.40;92.10;;;;;;5074473;28;20259;-73
2022/06/19 07:00:22;;;;;;;1.50;1.00;;;29.20;88.80;;;;;;5074495;28;20676;-73
2022/06/19 07:02:48;;;;;;;2.03;1.40;;;29.00;86.90;;;;;;5074435;28;20211;-73
2022/06/19 07:05:15;;;;;;;1.37;1.00;;;28.70;84.30;;;;;;5079089;28;20440;-73
2022/06/19 07:07:40;;;;;;;1.50;1.33;;;28.50;85.10;;;;;;5094305;28;20459;-72
2022/06/19 07:10:07;;;;;;;2.57;1.50;;;28.70;85.40;;;;;;5094595;28;20395;-72
2022/06/19 07:12:33;;;;;;;3.43;1.53;;;29.10;83.70;;;;;;5094583;28;20172;-73
2022/06/19 07:14:58;;;;;;;1.90;1.43;;;29.60;81.60;;;;;;5094202;28;20405;-73
2022/06/19 07:17:24;;;;;;;2.53;2.27;;;30.10;78.60;;;;;;5087999;28;20455;-73
2022/06/19 07:19:50;;;;;;;5.43;1.47;;;30.90;76.60;;;;;;5074093;28;20686;-73
2022/06/19 07:22:18;;;;;;;1.83;1.67;;;31.60;73.00;;;;;;5072776;28;20170;-72
2022/06/19 07:24:46;;;;;;;2.63;1.73;;;32.30;68.80;;;;;;5073718;28;20408;-72
2022/06/19 07:27:12;;;;;;;3.00;1.70;;;33.00;65.10;;;;;;5073855;28;20455;-72
2022/06/19 07:29:42;;;;;;;2.00;1.43;;;33.70;61.00;;;;;;5080629;28;20415;-72
2022/06/19 07:32:08;;;;;;;4.00;1.80;;;33.40;56.60;;;;;;5094062;28;20411;-72
2022/06/19 07:34:34;;;;;;;2.50;1.67;;;32.80;55.40;;;;;;5093755;28;20400;-72
2022/06/19 07:36:59;;;;;;;2.27;1.33;;;32.20;54.80;;;;;;5093870;28;20434;-72
2022/06/19 07:39:25;;;;;;;1.40;1.13;;;31.60;54.50;;;;;;5074957;28;20178;-72
2022/06/19 07:41:51;;;;;;;2.90;1.70;;;31.10;54.70;;;;;;5073640;28;20601;-72
2022/06/19 07:44:16;;;;;;;3.57;1.60;;;30.70;54.70;;;;;;5073401;28;20169;-72
2022/06/19 07:52:11;;;;;;;1.67;1.47;;;32.20;55.50;;;;;;5093801;28;20415;-72
2022/06/19 07:54:36;;;;;;;2.00;1.43;;;33.20;53.60;;;;;;5093310;28;20420;-72
2022/06/19 07:57:02;;;;;;;1.80;1.23;;;34.00;52.90;;;;;;5093457;28;20427;-72
2022/06/19 07:59:28;;;;;;;1.87;1.20;;;35.10;52.20;;;;;;5093597;28;20165;-73
2022/06/19 08:01:53;;;;;;;1.27;1.17;;;36.00;50.40;;;;;;5088655;28;20537;-73
2022/06/19 08:04:19;;;;;;;2.33;1.50;;;37.00;48.60;;;;;;5072896;28;20251;-73
2022/06/19 08:06:45;;;;;;;2.00;1.73;;;37.80;45.10;;;;;;5071842;28;20193;-73
2022/06/19 08:09:10;;;;;;;2.13;1.40;;;38.40;42.70;;;;;;5073123;28;20400;-73
2022/06/19 08:11:36;;;;;;;3.00;1.80;;;39.10;41.70;;;;;;5073139;28;20564;-73
2022/06/19 08:14:02;;;;;;;3.27;1.80;;;39.60;40.80;;;;;;5072991;28;20625;-73
2022/06/19 08:16:27;;;;;;;3.13;1.63;;;39.90;39.40;;;;;;5080788;28;20203;-73
2022/06/19 08:18:53;;;;;;;2.20;1.63;;;40.10;39.00;;;;;;5092936;28;20169;-73
2022/06/19 08:21:18;;;;;;;3.33;1.47;;;40.70;38.40;;;;;;5093120;28;20161;-73
2022/06/19 08:23:44;;;;;;;1.63;1.10;;;41.50;38.00;;;;;;5093084;28;20269;-73
2022/06/19 08:26:09;;;;;;;2.10;1.90;;;42.30;36.90;;;;;;5091436;28;20169;-74
2022/06/19 08:31:00;;;;;;;3.53;2.73;;;43.90;34.50;;;;;;5077582;28;20232;-73
2022/06/19 08:33:26;;;;;;;1.40;1.17;;;44.70;33.80;;;;;;5072711;28;20625;-74
2022/06/19 08:35:56;;;;;;;1.30;1.20;;;45.40;32.60;;;;;;5072290;28;20166;-71
2022/06/19 08:38:27;;;;;;;1.73;1.60;;;45.40;31.40;;;;;;5072608;28;20204;-71
2022/06/19 08:41:22;;;;;;;1.50;1.40;;;45.60;30.90;;;;;;5072536;28;20404;-69
2022/06/19 08:43:53;;;;;;;1.63;1.53;;;46.40;30.80;;;;;;5075619;28;20403;-70
2022/06/19 08:46:38;;;;;;;1.50;1.40;;;47.00;30.30;;;;;;5092359;28;20879;-70
2022/06/19 08:49:22;;;;;;;1.87;1.70;;;47.50;30.00;;;;;;5092400;28;20419;-70
2022/06/19 08:52:08;;;;;;;2.27;1.60;;;47.90;29.50;;;;;;5092690;28;20396;-69
2022/06/19 08:54:50;;;;;;;1.50;1.40;;;47.20;29.00;;;;;;5092107;28;20455;-70
2022/06/19 08:57:25;;;;;;;1.40;1.30;;;46.60;28.90;;;;;;5092525;28;20518;-69
2022/06/19 09:00:10;;;;;;;1.47;1.30;;;45.60;28.90;;;;;;5079338;28;20398;-69
2022/06/19 09:02:57;;;;;;;1.87;1.37;;;44.40;29.10;;;;;;5072359;28;20411;-69
2022/06/19 09:05:36;;;;;;;1.80;1.70;;;43.40;29.30;;;;;;5070738;28;20443;-69
2022/06/19 09:08:19;;;;;;;2.20;1.50;;;42.20;30.00;;;;;;5072150;28;20486;-70
2022/06/19 09:10:49;;;;;;;1.37;1.27;;;40.90;30.00;;;;;;5072201;28;20435;-69
2022/06/19 09:13:32;;;;;;;1.40;1.20;;;39.70;30.40;;;;;;5084157;28;20497;-70
2022/06/19 09:16:06;;;;;;;2.63;1.50;;;38.70;31.20;;;;;;5092076;28;20501;-69
2022/06/19 09:18:39;;;;;;;1.00;0.90;;;37.60;32.10;;;;;;5092242;28;20403;-69
2022/06/19 09:21:15;;;;;;;1.30;1.00;;;36.70;32.90;;;;;;5092237;28;20479;-69
2022/06/19 09:24:06;;;;;;;1.53;1.10;;;36.00;33.70;;;;;;5092278;28;20399;-69
2022/06/19 09:26:37;;;;;;;2.03;1.20;;;35.40;34.60;;;;;;5090449;28;20427;-69
2022/06/19 09:29:14;;;;;;;1.63;1.37;;;34.90;35.20;;;;;;5092252;28;20393;-71
2022/06/19 09:31:59;;;;;;;4.53;1.30;;;34.50;35.70;;;;;;5092157;28;20402;-69
2022/06/19 09:34:38;;;;;;;4.70;1.40;;;34.10;36.30;;;;;;5090492;28;20408;-69
2022/06/19 09:37:12;;;;;;;1.57;1.00;;;34.00;36.90;;;;;;5091981;28;20415;-69
2022/06/19 09:39:58;;;;;;;1.57;1.47;;;34.10;37.20;;;;;;5086977;28;20811;-69
2022/06/19 09:42:37;;;;;;;1.97;1.20;;;34.20;37.10;;;;;;5094308;28;20465;-70
2022/06/19 09:45:19;;;;;;;1.30;1.00;;;34.30;37.40;;;;;;5096333;28;20387;-70
2022/06/19 09:47:56;;;;;;;1.20;1.00;;;34.70;37.70;;;;;;5096021;28;20451;-71
2022/06/19 09:50:37;;;;;;;1.70;1.17;;;34.90;37.50;;;;;;5096256;28;20423;-69
2022/06/19 09:53:18;;;;;;;2.63;1.20;;;35.50;37.60;;;;;;5095850;28;20396;-69
2022/06/19 09:55:48;;;;;;;3.33;1.87;;;35.80;37.00;;;;;;5095755;28;20399;-70
2022/06/19 09:58:27;;;;;;;2.03;1.40;;;36.30;36.00;;;;;;5095889;28;20458;-69
2022/06/19 10:00:57;;;;;;;1.93;1.27;;;36.70;35.20;;;;;;5075670;28;20420;-69
2022/06/19 10:03:54;;;;;;;1.90;1.43;;;36.70;35.00;;;;;;5077358;28;20412;-73
2022/06/19 10:06:53;;;;;;;1.30;1.00;;;36.30;35.10;;;;;;5077199;28;20412;-72
2022/06/19 10:09:33;;;;;;;2.60;1.20;;;35.40;35.30;;;;;;5093758;28;20415;-72
2022/06/19 10:12:02;;;;;;;1.90;1.40;;;34.50;35.70;;;;;;5095737;28;20384;-72
2022/06/19 10:14:30;;;;;;;3.43;1.10;;;33.60;36.00;;;;;;5095290;28;20391;-71
2022/06/19 10:17:04;;;;;;;1.20;0.93;;;32.80;36.80;;;;;;5095448;28;20506;-71
2022/06/19 10:19:46;;;;;;;2.30;1.37;;;31.90;37.60;;;;;;5076447;28;20408;-71
2022/06/19 10:22:36;;;;;;;1.60;1.17;;;31.20;38.60;;;;;;5075236;28;20919;-71
2022/06/19 10:25:17;;;;;;;1.50;1.03;;;30.60;39.70;;;;;;5073500;28;21017;-71
2022/06/19 10:27:58;;;;;;;2.90;1.30;;;30.20;40.90;;;;;;5078266;28;20463;-71
2022/06/19 10:30:50;;;;;;;2.63;1.87;;;30.00;42.10;;;;;;5095398;28;20776;-71
2022/06/19 10:33:48;;;;;;;2.20;1.93;;;30.20;42.90;;;;;;5057002;28;20411;-71
2022/06/19 10:36:25;;;;;;;3.33;1.83;;;31.60;43.40;;;;;;5094887;28;20514;-72
2022/06/19 10:39:09;;;;;;;3.50;1.70;;;33.40;42.40;;;;;;5082125;28;20482;-72
2022/06/19 10:44:32;;;;;;;2.77;2.47;;;37.60;39.00;;;;;;5074629;28;20437;-72
2022/06/19 10:47:15;;;;;;;2.30;1.57;;;38.30;36.60;;;;;;5074660;28;20533;-72
2022/06/19 10:50:13;;;;;;;2.00;1.80;;;37.90;35.30;;;;;;5092865;28;21013;-72
2022/06/19 10:52:38;;;;;;;1.63;1.20;;;37.20;35.40;;;;;;5093182;28;20408;-72
2022/06/19 10:55:32;;;;;;;3.40;1.30;;;36.70;36.30;;;;;;5094518;28;21063;-72
2022/06/19 10:58:04;;;;;;;2.53;1.40;;;36.40;36.70;;;;;;5089611;28;20264;-72
2022/06/19 11:00:30;;;;;;;1.80;1.43;;;35.80;36.90;;;;;;5074495;28;20491;-72
2022/06/19 11:06:23;;;;;;;2.43;1.87;;;34.60;38.00;;;;;;5074254;28;20257;-72
2022/06/19 11:09:03;;;;;;;1.90;1.50;;;34.70;38.40;;;;;;5085884;28;20828;-72
2022/06/19 11:11:30;;;;;;;5.70;2.00;;;34.50;38.30;;;;;;5094704;28;20423;-72
2022/06/19 11:14:12;;;;;;;2.07;1.53;;;34.50;38.40;;;;;;5104477;28;20457;-73
2022/06/19 11:16:57;;;;;;;2.77;1.83;;;34.60;38.60;;;;;;5104366;28;20949;-73
2022/06/19 11:19:35;;;;;;;2.30;1.93;;;34.40;38.80;;;;;;5091187;28;20416;-73
2022/06/19 11:22:03;;;;;;;3.33;1.90;;;34.60;39.20;;;;;;5085920;28;20469;-71
2022/06/19 11:24:32;;;;;;;2.13;1.50;;;35.40;39.30;;;;;;5089621;28;20427;-72
2022/06/19 11:26:58;;;;;;;2.17;1.70;;;36.40;39.20;;;;;;5089294;28;20429;-72
2022/06/19 11:29:27;;;;;;;3.30;1.63;;;37.50;38.70;;;;;;5104772;28;20424;-73
2022/06/19 11:32:13;;;;;;;1.57;1.20;;;37.90;38.00;;;;;;5111802;28;20407;-74
2022/06/19 11:34:44;;;;;;;1.63;1.10;;;38.20;37.70;;;;;;5110126;28;20467;-73
2022/06/19 11:37:10;;;;;;;1.83;1.57;;;38.30;37.40;;;;;;5101550;28;20459;-73
2022/06/19 11:39:41;;;;;;;1.93;1.40;;;38.20;37.10;;;;;;5074628;28;20779;-73
2022/06/19 11:42:33;;;;;;;1.47;1.23;;;38.20;36.90;;;;;;5074491;28;20903;-73
2022/06/19 11:45:03;;;;;;;1.60;1.50;;;37.90;36.90;;;;;;5082233;28;20408;-73
2022/06/19 11:47:41;;;;;;;1.67;1.20;;;37.60;37.00;;;;;;5074842;28;20463;-73
2022/06/19 11:50:55;;;;;;;1.13;1.03;;;37.20;37.00;;;;;;5093531;28;20491;-72
2022/06/19 11:53:37;;;;;;;1.17;1.07;;;36.90;37.50;;;;;;5090728;28;20488;-72
2022/06/19 11:56:30;;;;;;;1.33;1.03;;;37.60;38.70;;;;;;5107269;28;20407;-74
2022/06/19 11:59:02;;;;;;;2.90;1.50;;;38.50;37.70;;;;;;5089638;28;20416;-71
2022/06/19 12:01:45;;;;;;;1.40;1.30;;;39.60;37.20;;;;;;5081471;28;20409;-73
2022/06/19 12:04:33;;;;;;;1.57;1.47;;;40.30;36.20;;;;;;5072390;28;20870;-73
2022/06/19 12:07:20;;;;;;;2.13;1.53;;;40.80;35.70;;;;;;5073140;28;20950;-73
2022/06/19 12:09:53;;;;;;;1.37;1.27;;;41.30;35.30;;;;;;5073220;28;20379;-73
2022/06/19 12:12:20;;;;;;;1.17;1.07;;;41.70;35.20;;;;;;5073145;28;20421;-73
2022/06/19 12:14:46;;;;;;;1.47;1.37;;;42.70;35.10;;;;;;5072747;28;20401;-73
2022/06/19 12:17:30;;;;;;;1.83;1.70;;;43.90;34.30;;;;;;5073615;28;21104;-73
2022/06/19 12:20:06;;;;;;;1.70;1.40;;;44.80;33.70;;;;;;5092670;28;20173;-73
2022/06/19 12:22:43;;;;;;;1.50;1.40;;;45.90;33.20;;;;;;5071644;28;20411;-73
2022/06/19 12:25:25;;;;;;;1.53;1.43;;;46.80;32.50;;;;;;5072872;28;20424;-74
2022/06/19 12:27:58;;;;;;;3.20;1.70;;;47.40;31.80;;;;;;5078876;28;20528;-72
2022/06/19 12:30:31;;;;;;;1.93;1.70;;;48.10;31.20;;;;;;5091592;28;21041;-72
2022/06/19 12:33:00;;;;;;;1.50;1.40;;;48.90;30.80;;;;;;5092929;28;20408;-74
2022/06/19 12:35:31;;;;;;;1.50;1.40;;;49.60;30.00;;;;;;5092666;28;20405;-72
2022/06/19 12:37:57;;;;;;;1.53;1.43;;;49.90;29.40;;;;;;5085646;28;20904;-73
2022/06/19 12:40:27;;;;;;;1.30;1.20;;;50.20;29.00;;;;;;5072603;28;20404;-73
2022/06/19 12:43:12;;;;;;;4.43;1.70;;;50.30;28.60;;;;;;5072590;28;20513;-74
2022/06/19 12:45:54;;;;;;;2.23;2.03;;;50.50;28.30;;;;;;5072292;28;20375;-73
2022/06/19 12:48:39;;;;;;;1.70;1.60;;;50.60;27.90;;;;;;5081714;28;20441;-74
2022/06/19 12:51:09;;;;;;;1.60;1.40;;;50.80;27.70;;;;;;5102094;28;20408;-75
2022/06/19 12:53:47;;;;;;;1.57;1.47;;;50.90;27.40;;;;;;5095295;28;20462;-75
2022/06/19 12:56:42;;;;;;;1.77;1.67;;;51.00;27.20;;;;;;5102547;28;20385;-75
2022/06/19 12:59:22;;;;;;;1.60;1.50;;;51.00;27.00;;;;;;5085751;28;20397;-74
2022/06/19 13:02:13;;;;;;;1.53;1.40;;;50.80;26.80;;;;;;5076722;28;20396;-74
2022/06/19 13:04:53;;;;;;;1.53;1.43;;;50.20;26.50;;;;;;5071945;28;20367;-74
2022/06/19 13:07:26;;;;;;;3.20;1.60;;;49.10;26.30;;;;;;5073064;28;20469;-74
2022/06/19 13:10:31;;;;;;;1.57;1.40;;;47.90;26.50;;;;;;5092493;28;20413;-74
2022/06/19 13:13:29;;;;;;;2.80;1.50;;;46.70;27.10;;;;;;5092312;28;20426;-73
2022/06/19 13:15:59;;;;;;;2.80;1.53;;;45.40;27.50;;;;;;5091822;28;20381;-74
2022/06/19 13:18:40;;;;;;;1.40;1.30;;;44.30;27.80;;;;;;5082078;28;20443;-73
2022/06/19 13:21:26;;;;;;;3.90;1.57;;;43.40;28.40;;;;;;5072110;28;20858;-73
2022/06/19 13:23:54;;;;;;;2.40;1.50;;;42.70;29.00;;;;;;5072013;28;20412;-73
2022/06/19 13:29:13;;;;;;;2.03;1.67;;;41.20;29.70;;;;;;5092512;28;20496;-73